New Kitakyushu Airport
RJFR : now visible

Airfield :











YOU CAN JOIN US ON...

 
LOGIN :

Register | Disclaimer

   EN    FR    IT 

 









Legend :    VFR   Marginal VFR   IFR   Intensive IFR   Very Intensive IFR
Visi :
Ceiling :
>= 8 km
>= 3000ft
5 to 8 km
1000 to 3000 ft
1500m to 5 km
500 to 1000 ft
800 to 1500m
200 to 500 ft
< 800m
< 200 ft
Symbols :   Thunderstorms  Fog  Heavy snow  Heavy precipitations  Wind > 20 kt






- Airport Elevation : 21 ft
- IATA code : KKJ


RJFR - New Kitakyushu

CURRENT METAR :
  • 230900Z 08009KT 9999 FEW015 BKN/// 20/18 Q1009

EXPIRED METARs :
  • 230800Z 08009KT 9999 FEW020 BKN/// 20/18 Q1009
  • 230700Z 09010KT 9999 FEW020 BKN/// 21/18 Q1009
  • 230600Z 09010KT 9999 FEW015 BKN/// 22/18 Q1010
  • 230500Z 09010KT 9999 FEW015 BKN/// 21/18 Q1010

TAF TAF RJFR
Valid from the 23 at 06:00 until the 24 at 12:00 UTC


230505Z 2306/2412 10006KT 9999 FEW020
BECMG 2311/2313 30011KT
RJJJ FIR / Asia



MET'MAP, your aeronautical weather chart ! - Copyright ORBIFLY December 2007 - Disclaimer

ORBIFLY MET'MAP TEAM :

Programming & Development : Alexandra Zaïnal
Original concept : Baudouin d'Aumeries
Technical & hardware support : Manuel Goepfert
Assistance : Marc-Olivier Méhu




SOURCES & CREDITS :

   NOAA       Earth
Advisory